John James Audubon — WDE8037 — position and weather

sailwx.info

Track history (hours):
 
Tides and Currents Weather Stations Pressure Air Temp Water Temp Dewpoint Dewpoint Depression Visibility Wind Speed Wind Dir Waves Ship Positions

John James Audubon

Owner: Statue Cruises, Jersey City, NJ. More information available from US FCC via Universal Licensing System and Coast Guard Vessel Documentation Center.

Last reported at 2016-Mar-07 13:30 UTC. Time now 2016-May-31 21:57 UTC.
Position N 39°18' W 074°33'.
Warning: this ship's position is months out of date.

Length 37 m.

Type: Ship. MMSI: 367400770.

Date/timePositionNaut miles runAvg speedWind from/ knotsBaromVisibWave heightAir tempDewpointWater temp
2016-Mar-07 13:30N 39°18' W 074°33'8 7.6
2016-Mar-07 12:26N 39°21' W 074°23'9 9.2
2016-Mar-07 11:30N 39°26' W 074°14'9 9.4
2016-Mar-07 10:33N 39°33' W 074°07'10 9.5
2016-Mar-07 09:33N 39°41' W 074°01'9 9.5
2016-Mar-07 08:33N 39°50' W 073°56'38 9.5
2016-Mar-07 04:31N 40°28' W 073°52'1111.4
2016-Mar-07 03:33N 40°35' W 074°02'8 8.5
2016-Mar-07 02:33N 40°44' W 074°01'  
2016-Mar-03 10:25N 40°44' W 074°01'0 0.0
2016-Mar-03 09:33N 40°44' W 074°01'0 0.0
2016-Mar-03 08:33N 40°44' W 074°01'0 0.0
2016-Mar-01 22:33N 40°44' W 074°01'2 2.5
2016-Mar-01 21:33N 40°41' W 074°02'2 1.5
2016-Mar-01 20:33N 40°42' W 074°00'0 0.0
2016-Mar-01 19:33N 40°42' W 074°00'2 1.6
2016-Mar-01 18:33N 40°41' W 074°02'2 1.6
2016-Mar-01 17:33N 40°42' W 074°00'0 0.0
2016-Mar-01 16:33N 40°42' W 074°00'2 1.6
2016-Mar-01 15:33N 40°41' W 074°02'2 1.6
2016-Mar-01 14:33N 40°42' W 074°00'2 0.1
2016-Feb-29 22:33N 40°44' W 074°01'2 2.5
2016-Feb-29 21:34N 40°41' W 074°02'1 1.4
2016-Feb-29 20:33N 40°42' W 074°00'0 0.0
2016-Feb-29 19:33N 40°42' W 074°00'2 1.6
2016-Feb-29 18:33N 40°41' W 074°02'2 1.6
2016-Feb-29 17:34N 40°42' W 074°00'0 0.0
2016-Feb-29 16:33N 40°42' W 074°00'1 1.5
2016-Feb-29 15:34N 40°41' W 074°02'1 1.5
2016-Feb-29 14:33N 40°42' W 074°00'2 0.1
2016-Feb-28 23:33N 40°44' W 074°01'2 1.8
2016-Feb-28 22:33N 40°43' W 074°02'1 1.3
2016-Feb-28 21:33N 40°42' W 074°01'1 1.2
2016-Feb-28 20:33N 40°42' W 074°00'0 0.0
2016-Feb-28 19:33N 40°42' W 074°00'1 1.2
2016-Feb-28 18:33N 40°42' W 074°01'1 1.2
2016-Feb-28 17:33N 40°42' W 074°00'0 0.0
2016-Feb-28 16:33N 40°42' W 074°00'2 1.5
2016-Feb-28 15:33N 40°41' W 074°02'2 1.5
2016-Feb-28 14:33N 40°42' W 074°00'2 1.6
2016-Feb-28 13:33N 40°44' W 074°01'1 0.0
2016-Feb-27 22:33N 40°43' W 074°01'2 2.1
2016-Feb-27 21:33N 40°41' W 074°02'2 1.5
2016-Feb-27 20:33N 40°42' W 074°00'0 0.0
2016-Feb-27 19:33N 40°42' W 074°00'2 1.6
2016-Feb-27 18:33N 40°41' W 074°02'2 1.6
2016-Feb-27 17:33N 40°42' W 074°00'0 0.0
2016-Feb-27 16:33N 40°42' W 074°00'2 1.6
2016-Feb-27 15:33N 40°41' W 074°02'2 1.6
2016-Feb-27 14:33N 40°42' W 074°00'2 0.1
2016-Feb-26 22:33N 40°44' W 074°01'2 2.5
2016-Feb-26 21:33N 40°41' W 074°02'1 1.4
2016-Feb-26 20:33N 40°42' W 074°00'0 0.0
2016-Feb-26 19:33N 40°42' W 074°00'2 1.5
2016-Feb-26 18:33N 40°41' W 074°02'2 1.5
2016-Feb-26 17:33N 40°42' W 074°00'0 0.0
2016-Feb-26 16:33N 40°42' W 074°00'1 1.4
2016-Feb-26 15:33N 40°41' W 074°02'1 1.4
2016-Feb-26 14:34N 40°42' W 074°00'2 1.6
2016-Feb-26 13:33N 40°44' W 074°01'  
Track history (hours):
 
Tides and Currents Weather Stations Pressure Air Temp Water Temp Dewpoint Dewpoint Depression Visibility Wind Speed Wind Dir Waves Ship Positions

John James Audubon

Owner: Statue Cruises, Jersey City, NJ. More information available from US FCC via Universal Licensing System and Coast Guard Vessel Documentation Center.

Last reported at 2016-Mar-07 13:30 UTC. Time now 2016-May-31 21:57 UTC.
Position N 39°18' W 074°33'.
Warning: this ship's position is months out of date.

Length 37 m.

Type: Ship. MMSI: 367400770.

Date/timePositionNaut miles runAvg speedWind from/ knotsBaromVisibWave heightAir tempDewpointWater temp
2016-Mar-07 13:30N 39°18' W 074°33'8 7.6
2016-Mar-07 12:26N 39°21' W 074°23'9 9.2
2016-Mar-07 11:30N 39°26' W 074°14'9 9.4
2016-Mar-07 10:33N 39°33' W 074°07'10 9.5
2016-Mar-07 09:33N 39°41' W 074°01'9 9.5
2016-Mar-07 08:33N 39°50' W 073°56'38 9.5
2016-Mar-07 04:31N 40°28' W 073°52'1111.4
2016-Mar-07 03:33N 40°35' W 074°02'8 8.5
2016-Mar-07 02:33N 40°44' W 074°01'  
2016-Mar-03 10:25N 40°44' W 074°01'0 0.0
2016-Mar-03 09:33N 40°44' W 074°01'0 0.0
2016-Mar-03 08:33N 40°44' W 074°01'0 0.0
2016-Mar-01 22:33N 40°44' W 074°01'2 2.5
2016-Mar-01 21:33N 40°41' W 074°02'2 1.5
2016-Mar-01 20:33N 40°42' W 074°00'0 0.0
2016-Mar-01 19:33N 40°42' W 074°00'2 1.6
2016-Mar-01 18:33N 40°41' W 074°02'2 1.6
2016-Mar-01 17:33N 40°42' W 074°00'0 0.0
2016-Mar-01 16:33N 40°42' W 074°00'2 1.6
2016-Mar-01 15:33N 40°41' W 074°02'2 1.6
2016-Mar-01 14:33N 40°42' W 074°00'2 0.1
2016-Feb-29 22:33N 40°44' W 074°01'2 2.5
2016-Feb-29 21:34N 40°41' W 074°02'1 1.4
2016-Feb-29 20:33N 40°42' W 074°00'0 0.0
2016-Feb-29 19:33N 40°42' W 074°00'2 1.6
2016-Feb-29 18:33N 40°41' W 074°02'2 1.6
2016-Feb-29 17:34N 40°42' W 074°00'0 0.0
2016-Feb-29 16:33N 40°42' W 074°00'1 1.5
2016-Feb-29 15:34N 40°41' W 074°02'1 1.5
2016-Feb-29 14:33N 40°42' W 074°00'2 0.1
2016-Feb-28 23:33N 40°44' W 074°01'2 1.8
2016-Feb-28 22:33N 40°43' W 074°02'1 1.3
2016-Feb-28 21:33N 40°42' W 074°01'1 1.2
2016-Feb-28 20:33N 40°42' W 074°00'0 0.0
2016-Feb-28 19:33N 40°42' W 074°00'1 1.2
2016-Feb-28 18:33N 40°42' W 074°01'1 1.2
2016-Feb-28 17:33N 40°42' W 074°00'0 0.0
2016-Feb-28 16:33N 40°42' W 074°00'2 1.5
2016-Feb-28 15:33N 40°41' W 074°02'2 1.5
2016-Feb-28 14:33N 40°42' W 074°00'2 1.6
2016-Feb-28 13:33N 40°44' W 074°01'1 0.0
2016-Feb-27 22:33N 40°43' W 074°01'2 2.1
2016-Feb-27 21:33N 40°41' W 074°02'2 1.5
2016-Feb-27 20:33N 40°42' W 074°00'0 0.0
2016-Feb-27 19:33N 40°42' W 074°00'2 1.6
2016-Feb-27 18:33N 40°41' W 074°02'2 1.6
2016-Feb-27 17:33N 40°42' W 074°00'0 0.0
2016-Feb-27 16:33N 40°42' W 074°00'2 1.6
2016-Feb-27 15:33N 40°41' W 074°02'2 1.6
2016-Feb-27 14:33N 40°42' W 074°00'2 0.1
2016-Feb-26 22:33N 40°44' W 074°01'2 2.5
2016-Feb-26 21:33N 40°41' W 074°02'1 1.4
2016-Feb-26 20:33N 40°42' W 074°00'0 0.0
2016-Feb-26 19:33N 40°42' W 074°00'2 1.5
2016-Feb-26 18:33N 40°41' W 074°02'2 1.5
2016-Feb-26 17:33N 40°42' W 074°00'0 0.0
2016-Feb-26 16:33N 40°42' W 074°00'1 1.4
2016-Feb-26 15:33N 40°41' W 074°02'1 1.4
2016-Feb-26 14:34N 40°42' W 074°00'2 1.6
2016-Feb-26 13:33N 40°44' W 074°01'  

Dump ship's entire track history